Aérodrome :







RETROUVEZ-NOUS SUR...

 
LOGIN :

S'inscrire | Disclaimer

   EN    FR    IT 

 









Légende :    VFR   VFR Marginal   IFR   IFR Intensif   IFR Très Intensif
Visi : 
Plafond : 
>= 8 km
>= 3000ft
5 à 8 km
1000 à 3000 ft
1500m à 5 km
500 à 1000 ft
800 à 1500m
200 à 500 ft
< 800m
< 200 ft
Symboles :   Orages  Brouillard  Fortes neiges  Fortes précipitations  Vent > 20 kt






- Altitude de l'aérodrome : 1161 ft


KBML - Berlin Regional

DERNIER METAR :
  • 140552Z AUTO 00000KT 10SM CLR M16/M19 A3036 RMK AO2 SLP311 I6000 T11611189 11111 21167 50005

METARs EXPIRÉS :
  • 140452Z AUTO 00000KT 10SM CLR M16/M19 A3037 RMK AO2 SLP315 T11611189 410831167
  • 140352Z AUTO 00000KT 10SM CLR M16/M18 A3037 RMK AO2 SLP312 T11611183

TAF N/A



MET'MAP, la Météo Aéronautique d'un coup d'oeil ! - Copyright ORBIFLY Décembre 2007 - Disclaimer

ORBIFLY MET'MAP TEAM :

Programmation & Développement : Alexandra Zaïnal
Conception & Développement : Baudouin d'Aumeries
Co-Programmation & Développement : Marc-Olivier Méhu
Soutien technique & logistique : Manuel Goepfert

Contact : metmap@orbifly.com




SOURCES & CREDITS :

   NOAA